Time;durP1;ratioP1;P1;durP2;ratioP2;P2;SDS_P1;SDS_P2;PMS_P1;PMS_P2;Temp;Humidity;BMP_temperature;BMP_pressure;BME280_temperature;BME280_humidity;BME280_pressure;Samples;Min_cycle;Max_cycle;Signal;HPM_P1;HPM_P2
2021/10/31 08:46:50;;;;;;;1.53;1.33;;;11.80;98.00;;;;;;6169560;22;1302076;-70
2021/10/31 08:49:19;;;;;;;2.70;1.80;;;11.70;98.00;;;;;;6194433;23;20177;-70
2021/10/31 08:51:46;;;;;;;1.40;1.40;;;11.70;98.00;;;;;;6221653;23;20743;-69
2021/10/31 08:54:13;;;;;;;1.53;1.30;;;11.90;98.00;;;;;;6221926;23;20426;-69
2021/10/31 08:56:40;;;;;;;1.60;1.60;;;12.10;98.00;;;;;;6221468;23;20399;-70
2021/10/31 08:59:09;;;;;;;1.60;1.20;;;12.10;98.00;;;;;;6219066;23;20417;-71
2021/10/31 09:01:36;;;;;;;1.40;1.23;;;12.00;98.00;;;;;;6221184;23;20516;-71
2021/10/31 09:04:05;;;;;;;1.67;1.40;;;12.10;98.00;;;;;;6222052;23;20416;-70
2021/10/31 09:06:32;;;;;;;1.73;1.57;;;12.20;98.00;;;;;;6221963;23;20454;-71
2021/10/31 09:08:59;;;;;;;2.07;1.73;;;12.30;98.00;;;;;;6221928;23;20745;-71
2021/10/31 09:11:26;;;;;;;1.97;1.67;;;12.50;98.00;;;;;;6221784;23;20963;-70
2021/10/31 09:13:54;;;;;;;1.30;1.30;;;12.60;98.00;;;;;;6221517;23;20864;-71
2021/10/31 09:16:21;;;;;;;1.70;1.20;;;12.80;98.00;;;;;;6221445;23;20401;-70
2021/10/31 09:18:48;;;;;;;1.33;1.17;;;12.90;98.00;;;;;;6195667;23;20920;-70
2021/10/31 09:21:20;;;;;;;1.30;1.20;;;13.00;98.00;;;;;;6221687;23;20405;-70
2021/10/31 09:23:46;;;;;;;2.27;1.50;;;13.10;98.00;;;;;;6221761;23;20428;-70
2021/10/31 09:26:15;;;;;;;1.67;1.47;;;13.10;98.00;;;;;;6221373;23;20440;-69
2021/10/31 09:28:42;;;;;;;1.60;1.47;;;13.10;98.00;;;;;;6220850;23;20448;-70
2021/10/31 09:31:09;;;;;;;2.70;1.80;;;13.20;98.00;;;;;;6194830;23;20490;-70
2021/10/31 09:33:39;;;;;;;1.23;1.23;;;13.30;98.00;;;;;;6217106;23;20479;-70
2021/10/31 09:36:06;;;;;;;6.00;1.27;;;13.40;98.00;;;;;;6214695;23;20397;-70
2021/10/31 09:38:35;;;;;;;3.67;1.77;;;13.50;98.00;;;;;;6214202;23;20397;-70
2021/10/31 09:41:02;;;;;;;1.60;1.50;;;13.70;98.00;;;;;;6214443;23;20482;-69
2021/10/31 09:43:35;;;;;;;1.50;1.30;;;13.80;98.00;;;;;;6214365;23;20426;-69
2021/10/31 09:46:04;;;;;;;2.00;1.47;;;13.90;98.00;;;;;;6214254;23;20402;-69
2021/10/31 09:48:32;;;;;;;1.30;1.20;;;14.10;98.00;;;;;;6214964;23;20895;-71
2021/10/31 09:51:00;;;;;;;1.80;1.73;;;14.30;98.00;;;;;;6215398;23;20400;-72
2021/10/31 09:53:28;;;;;;;2.73;1.90;;;14.40;98.00;;;;;;6215081;23;20403;-71
2021/10/31 09:56:10;;;;;;;6.00;2.30;;;14.40;98.00;;;;;;6215323;23;20408;-71
2021/10/31 09:58:39;;;;;;;1.63;1.43;;;14.40;98.00;;;;;;6215626;23;20857;-72
2021/10/31 10:01:21;;;;;;;2.30;1.47;;;14.60;98.00;;;;;;6215637;23;20401;-71
2021/10/31 10:03:54;;;;;;;2.10;1.90;;;14.70;98.00;;;;;;6215214;23;20849;-71
2021/10/31 10:06:23;;;;;;;2.03;1.60;;;14.90;98.00;;;;;;6215295;23;20450;-71
2021/10/31 10:09:03;;;;;;;1.50;1.40;;;15.10;98.00;;;;;;6215659;23;20461;-71
2021/10/31 10:11:35;;;;;;;2.17;1.50;;;15.30;98.00;;;;;;6215108;23;20408;-71
2021/10/31 10:14:17;;;;;;;2.60;1.50;;;15.60;98.00;;;;;;6215710;23;20397;-71
2021/10/31 10:16:44;;;;;;;2.07;1.33;;;15.80;98.00;;;;;;6215482;23;20401;-71
2021/10/31 10:19:21;;;;;;;2.50;2.17;;;15.90;98.00;;;;;;6215595;23;20426;-71
2021/10/31 10:21:57;;;;;;;3.00;1.80;;;16.00;98.00;;;;;;6215411;23;20429;-72
2021/10/31 10:24:24;;;;;;;3.20;1.97;;;16.10;98.00;;;;;;6215608;23;20943;-71
2021/10/31 10:26:56;;;;;;;10.20;1.77;;;16.10;98.00;;;;;;6215458;23;20410;-71
2021/10/31 10:29:26;;;;;;;3.77;1.90;;;16.20;98.00;;;;;;6215955;23;20464;-71
2021/10/31 10:31:56;;;;;;;1.80;1.63;;;16.30;98.00;;;;;;6189270;23;20468;-71
2021/10/31 10:34:45;;;;;;;2.53;1.80;;;16.40;98.00;;;;;;6215613;23;20480;-71
2021/10/31 10:37:15;;;;;;;1.37;1.37;;;16.60;98.00;;;;;;6214683;23;20405;-71
2021/10/31 10:39:43;;;;;;;1.50;1.33;;;16.80;98.00;;;;;;6215399;23;20460;-71
2021/10/31 10:42:19;;;;;;;1.60;1.47;;;17.00;98.00;;;;;;6215101;23;20449;-71
2021/10/31 10:44:47;;;;;;;1.87;1.40;;;17.20;98.00;;;;;;6214570;23;20398;-71
2021/10/31 10:47:19;;;;;;;2.33;1.67;;;17.40;98.00;;;;;;6214837;23;20426;-71
2021/10/31 10:49:46;;;;;;;2.43;1.20;;;17.50;98.00;;;;;;6214963;23;20513;-71
2021/10/31 10:52:23;;;;;;;1.90;1.73;;;17.70;98.00;;;;;;6214753;23;20391;-71
2021/10/31 10:54:55;;;;;;;1.80;1.53;;;17.90;98.00;;;;;;6214707;23;20399;-71
2021/10/31 10:57:25;;;;;;;1.30;1.20;;;18.00;98.00;;;;;;6214761;23;20403;-71
2021/10/31 10:59:54;;;;;;;2.60;1.50;;;18.30;98.00;;;;;;6214196;23;20418;-71
2021/10/31 11:02:23;;;;;;;1.30;1.27;;;18.60;98.00;;;;;;6213712;23;20477;-71
2021/10/31 11:04:54;;;;;;;1.47;1.40;;;18.80;98.00;;;;;;6214289;23;20410;-72
2021/10/31 11:07:30;;;;;;;1.37;1.27;;;19.10;98.00;;;;;;6214889;23;20402;-71
2021/10/31 11:09:57;;;;;;;1.23;1.10;;;19.40;98.00;;;;;;6188089;23;20712;-71
2021/10/31 11:12:32;;;;;;;1.60;1.47;;;19.80;98.00;;;;;;6214932;23;20696;-71
2021/10/31 11:15:02;;;;;;;1.60;1.40;;;20.10;96.50;;;;;;6214585;23;20418;-72
2021/10/31 11:17:31;;;;;;;2.60;1.33;;;20.40;94.00;;;;;;6214791;23;20776;-72
2021/10/31 11:19:58;;;;;;;1.40;1.30;;;20.70;92.10;;;;;;6214955;23;20427;-72
2021/10/31 11:22:30;;;;;;;1.50;1.47;;;21.00;89.70;;;;;;6214443;23;20430;-71
2021/10/31 11:24:58;;;;;;;1.50;1.23;;;21.20;87.30;;;;;;6214582;23;20399;-71
2021/10/31 11:27:27;;;;;;;1.43;1.27;;;21.40;87.40;;;;;;6214589;23;20410;-71
2021/10/31 11:29:58;;;;;;;2.23;1.43;;;21.60;85.10;;;;;;6214817;23;20422;-71
2021/10/31 11:32:27;;;;;;;1.40;1.30;;;21.80;85.20;;;;;;6214272;23;20974;-72
2021/10/31 11:34:56;;;;;;;1.57;1.37;;;21.90;82.40;;;;;;6214550;23;20394;-71
2021/10/31 11:37:27;;;;;;;1.60;1.60;;;22.10;83.30;;;;;;6214368;23;20456;-71
2021/10/31 11:39:59;;;;;;;1.60;1.40;;;22.20;81.90;;;;;;6214994;23;20417;-71
2021/10/31 11:42:27;;;;;;;2.23;2.03;;;22.40;82.10;;;;;;6214373;23;20426;-72
2021/10/31 11:45:02;;;;;;;1.77;1.47;;;22.40;81.90;;;;;;6215122;23;20457;-72
2021/10/31 11:47:32;;;;;;;1.40;1.30;;;22.40;79.30;;;;;;6214174;23;20458;-72
2021/10/31 11:50:19;;;;;;;1.67;1.60;;;22.30;79.80;;;;;;6214967;23;20407;-72
2021/10/31 11:52:49;;;;;;;2.23;1.60;;;22.40;80.20;;;;;;6208201;23;20488;-74
2021/10/31 11:58:58;;;;;;;2.50;1.63;;;22.20;80.30;;;;;;6213583;23;20436;-74
2021/10/31 12:01:41;;;;;;;1.80;1.37;;;22.00;79.30;;;;;;6214552;23;20885;-73
2021/10/31 12:04:11;;;;;;;1.90;1.30;;;21.90;79.30;;;;;;6214487;23;20466;-74
2021/10/31 12:06:46;;;;;;;1.33;1.30;;;21.90;80.10;;;;;;6214063;23;20425;-74
2021/10/31 12:09:25;;;;;;;1.47;1.47;;;21.90;80.20;;;;;;6214294;23;20712;-73
2021/10/31 12:12:24;;;;;;;1.43;1.40;;;21.90;80.30;;;;;;6214496;23;20896;-74
2021/10/31 12:14:56;;;;;;;1.27;1.27;;;21.90;81.10;;;;;;6063892;23;20399;-74
2021/10/31 12:17:26;;;;;;;2.23;1.37;;;21.90;80.40;;;;;;6185934;23;20807;-74
2021/10/31 12:19:55;;;;;;;1.63;1.40;;;21.90;81.90;;;;;;6214442;23;20394;-73
2021/10/31 12:22:33;;;;;;;1.60;1.50;;;21.90;80.90;;;;;;6223904;23;20492;-73
2021/10/31 12:25:04;;;;;;;1.40;1.30;;;21.90;80.10;;;;;;6214446;23;20465;-73
2021/10/31 12:27:42;;;;;;;1.37;1.27;;;21.80;80.20;;;;;;6214582;23;20410;-74
2021/10/31 12:30:40;;;;;;;1.57;1.30;;;21.80;79.40;;;;;;6214509;23;20402;-73
2021/10/31 12:33:11;;;;;;;1.20;1.20;;;21.70;79.80;;;;;;6214341;23;20464;-73
2021/10/31 12:35:40;;;;;;;1.60;1.30;;;21.80;79.90;;;;;;6187549;23;20812;-73
2021/10/31 12:38:33;;;;;;;2.00;1.67;;;21.70;81.20;;;;;;6214020;23;20870;-74
2021/10/31 12:41:21;;;;;;;2.03;1.40;;;21.70;80.80;;;;;;6214419;23;20427;-73
2021/10/31 12:43:52;;;;;;;1.43;1.40;;;21.60;78.80;;;;;;6213492;23;20446;-73
2021/10/31 12:46:23;;;;;;;2.57;1.40;;;21.70;79.70;;;;;;6214354;23;20807;-74
2021/10/31 12:48:53;;;;;;;1.93;1.33;;;21.80;79.70;;;;;;6213905;23;20401;-74
2021/10/31 12:51:45;;;;;;;1.67;1.57;;;21.90;79.70;;;;;;6214328;23;20884;-73
2021/10/31 12:54:24;;;;;;;1.40;1.17;;;22.00;79.50;;;;;;6209587;23;20983;-74
2021/10/31 12:56:52;;;;;;;1.30;1.30;;;22.10;79.40;;;;;;6214555;23;20402;-74
2021/10/31 12:59:20;;;;;;;1.30;1.20;;;22.20;79.00;;;;;;6214779;23;20403;-74
2021/10/31 13:01:48;;;;;;;1.30;1.30;;;22.20;79.00;;;;;;6214370;23;20403;-74
2021/10/31 13:04:16;;;;;;;1.60;1.50;;;22.30;78.10;;;;;;6214539;23;20746;-74
2021/10/31 13:06:54;;;;;;;1.67;1.50;;;22.50;76.80;;;;;;6214089;23;20398;-74
2021/10/31 13:09:22;;;;;;;1.77;1.70;;;22.70;75.70;;;;;;6215438;23;20845;-74
2021/10/31 13:11:51;;;;;;;2.17;1.40;;;22.80;75.00;;;;;;6216202;23;20464;-74
2021/10/31 13:14:29;;;;;;;2.00;1.70;;;22.80;74.90;;;;;;6215533;23;20406;-73
2021/10/31 13:17:01;;;;;;;1.30;1.30;;;22.60;75.20;;;;;;6215527;23;20453;-74
2021/10/31 13:19:36;;;;;;;1.50;1.43;;;22.50;76.20;;;;;;6215352;23;20516;-74
2021/10/31 13:22:05;;;;;;;2.07;1.47;;;22.30;76.70;;;;;;6215469;23;20402;-74
2021/10/31 13:24:36;;;;;;;1.20;1.20;;;22.00;77.50;;;;;;6215852;23;20390;-74
2021/10/31 13:27:04;;;;;;;1.70;1.40;;;21.80;77.30;;;;;;6215890;23;20409;-74
2021/10/31 13:29:42;;;;;;;1.37;1.20;;;21.50;79.00;;;;;;6215493;23;20877;-74
2021/10/31 13:32:32;;;;;;;1.60;1.47;;;21.50;80.00;;;;;;6215596;23;20398;-73
2021/10/31 13:35:02;;;;;;;1.60;1.40;;;21.40;79.20;;;;;;6211190;23;20429;-74
2021/10/31 13:37:29;;;;;;;1.53;1.50;;;21.30;79.00;;;;;;6215888;23;20478;-73
2021/10/31 13:39:58;;;;;;;3.27;1.70;;;21.20;80.10;;;;;;6215292;23;20418;-74
2021/10/31 13:42:36;;;;;;;1.67;1.37;;;21.20;81.10;;;;;;6216032;23;20395;-77
2021/10/31 13:45:09;;;;;;;1.50;1.33;;;21.00;81.30;;;;;;6215608;23;20491;-73
2021/10/31 13:47:40;;;;;;;1.73;1.40;;;21.00;81.80;;;;;;6215402;23;20426;-72
2021/10/31 13:50:15;;;;;;;2.00;1.57;;;20.90;81.40;;;;;;6215977;23;20398;-73
2021/10/31 13:52:44;;;;;;;2.33;1.63;;;21.00;81.80;;;;;;6215339;23;20464;-71
2021/10/31 13:55:14;;;;;;;2.30;1.60;;;21.40;80.40;;;;;;6215575;23;20940;-72
2021/10/31 13:57:44;;;;;;;5.63;1.73;;;21.80;80.30;;;;;;6215293;23;20406;-72
2021/10/31 14:00:14;;;;;;;2.60;1.60;;;22.10;79.10;;;;;;6215877;23;20481;-74
2021/10/31 14:02:41;;;;;;;1.43;1.33;;;22.50;78.80;;;;;;6188763;23;20434;-72
2021/10/31 14:05:11;;;;;;;1.37;1.37;;;22.80;78.00;;;;;;6215843;23;20410;-72
2021/10/31 14:07:42;;;;;;;1.70;1.30;;;23.00;77.40;;;;;;6215431;23;20402;-72
2021/10/31 14:10:11;;;;;;;1.97;1.70;;;23.20;78.10;;;;;;6215538;23;20460;-72
2021/10/31 14:12:38;;;;;;;2.57;1.80;;;23.30;77.10;;;;;;6215479;23;20403;-72
2021/10/31 14:15:09;;;;;;;2.90;1.57;;;23.50;76.20;;;;;;6215914;23;20457;-72
2021/10/31 14:17:38;;;;;;;2.20;1.70;;;23.70;76.40;;;;;;6215363;23;20399;-72
2021/10/31 14:20:12;;;;;;;1.70;1.60;;;23.60;77.20;;;;;;6215071;23;20449;-72
2021/10/31 14:22:48;;;;;;;3.30;1.50;;;23.60;75.80;;;;;;6214960;23;20768;-72
2021/10/31 14:25:17;;;;;;;1.80;1.50;;;23.70;76.60;;;;;;6225062;23;20414;-72
2021/10/31 14:27:47;;;;;;;1.57;1.50;;;24.10;76.30;;;;;;6215022;23;20395;-72
2021/10/31 14:30:32;;;;;;;1.97;1.70;;;24.60;76.00;;;;;;6215210;23;20773;-72
2021/10/31 14:33:02;;;;;;;1.57;1.40;;;24.90;73.90;;;;;;6214852;23;20480;-72
2021/10/31 14:35:44;;;;;;;1.60;1.47;;;25.20;74.00;;;;;;6215206;23;20399;-73
2021/10/31 14:38:17;;;;;;;1.93;1.63;;;25.60;73.60;;;;;;6214851;23;20430;-73
2021/10/31 14:40:46;;;;;;;1.40;1.40;;;25.90;72.10;;;;;;6215366;23;20397;-73
2021/10/31 14:43:16;;;;;;;1.47;1.37;;;25.90;71.10;;;;;;6214898;23;20873;-72
2021/10/31 14:45:51;;;;;;;1.73;1.30;;;25.90;72.60;;;;;;6215119;23;20403;-72
2021/10/31 14:48:30;;;;;;;1.47;1.30;;;25.80;72.40;;;;;;6214978;23;20922;-72
2021/10/31 14:51:12;;;;;;;1.70;1.43;;;25.70;74.10;;;;;;6215036;23;20449;-73
2021/10/31 14:53:56;;;;;;;2.57;1.30;;;25.80;75.40;;;;;;6214598;23;20501;-73
2021/10/31 14:56:25;;;;;;;2.83;1.83;;;25.60;77.00;;;;;;6214998;23;20843;-74
2021/10/31 14:58:52;;;;;;;2.40;1.73;;;25.30;78.80;;;;;;6216304;23;20399;-75
2021/10/31 15:01:24;;;;;;;2.20;1.53;;;25.30;80.80;;;;;;6214937;23;20874;-74
2021/10/31 15:03:51;;;;;;;2.57;1.90;;;25.50;76.10;;;;;;6215044;23;20398;-74
2021/10/31 15:06:21;;;;;;;1.60;1.47;;;25.50;76.70;;;;;;6214791;23;20402;-74
2021/10/31 15:08:52;;;;;;;1.77;1.60;;;25.90;79.80;;;;;;6214942;23;20477;-73
2021/10/31 15:11:19;;;;;;;1.83;1.60;;;26.20;79.20;;;;;;6214828;23;20489;-73
2021/10/31 15:13:46;;;;;;;2.00;1.60;;;26.00;78.80;;;;;;6214798;23;20504;-74
2021/10/31 15:16:14;;;;;;;2.90;1.80;;;25.70;78.00;;;;;;6215101;23;20425;-74
2021/10/31 15:18:41;;;;;;;2.00;1.60;;;25.00;77.00;;;;;;6215087;23;20407;-71
2021/10/31 15:21:11;;;;;;;1.70;1.50;;;24.40;80.30;;;;;;6214647;23;20881;-72
2021/10/31 15:23:38;;;;;;;1.70;1.70;;;23.80;80.40;;;;;;6214531;23;20411;-73
2021/10/31 15:26:07;;;;;;;2.13;1.50;;;23.10;82.50;;;;;;6215213;23;20790;-72
2021/10/31 15:28:34;;;;;;;1.93;1.57;;;22.80;86.70;;;;;;6214870;23;20399;-73
2021/10/31 15:31:01;;;;;;;1.50;1.40;;;22.40;85.90;;;;;;6214475;23;20395;-72
2021/10/31 15:33:31;;;;;;;2.27;1.73;;;21.80;85.70;;;;;;6188109;23;20529;-73
2021/10/31 15:35:59;;;;;;;2.70;1.73;;;21.00;88.40;;;;;;6214739;23;20411;-73
2021/10/31 15:38:26;;;;;;;2.90;1.83;;;20.40;90.80;;;;;;6214710;23;20402;-72
2021/10/31 15:40:53;;;;;;;1.57;1.53;;;19.80;92.30;;;;;;6214263;23;20406;-74
2021/10/31 15:43:22;;;;;;;2.70;1.60;;;19.40;94.00;;;;;;6214663;23;20406;-72
2021/10/31 15:45:52;;;;;;;1.70;1.30;;;19.00;94.30;;;;;;6214071;23;20395;-70
2021/10/31 15:48:20;;;;;;;1.97;1.40;;;18.60;94.50;;;;;;6213778;23;20419;-71
2021/10/31 15:50:47;;;;;;;2.30;1.43;;;18.30;95.70;;;;;;6214564;23;20530;-71
2021/10/31 15:53:14;;;;;;;1.93;1.50;;;18.10;96.10;;;;;;6214597;23;20395;-70
2021/10/31 15:55:43;;;;;;;2.37;1.47;;;17.90;96.60;;;;;;6214574;23;20453;-70
2021/10/31 15:58:10;;;;;;;1.67;1.43;;;17.70;96.70;;;;;;6214511;23;20713;-70
2021/10/31 16:00:40;;;;;;;1.57;1.50;;;17.60;97.00;;;;;;6214528;23;20399;-70
2021/10/31 16:03:11;;;;;;;1.40;1.27;;;17.60;97.30;;;;;;6214044;23;20506;-71
2021/10/31 16:05:39;;;;;;;1.40;1.30;;;17.50;97.40;;;;;;6214111;23;20498;-70
2021/10/31 16:08:11;;;;;;;1.93;1.40;;;17.40;97.50;;;;;;6214535;23;20734;-70
2021/10/31 16:10:38;;;;;;;1.77;1.43;;;17.30;98.00;;;;;;6214060;23;20418;-69
2021/10/31 16:13:07;;;;;;;1.40;1.27;;;17.10;98.00;;;;;;6214347;23;20395;-71
2021/10/31 16:15:35;;;;;;;1.50;1.40;;;16.90;98.00;;;;;;6162900;23;20534;-71
2021/10/31 16:18:04;;;;;;;1.63;1.47;;;16.70;98.00;;;;;;6214448;23;20468;-73
2021/10/31 16:20:31;;;;;;;1.20;1.20;;;16.60;98.00;;;;;;6188360;23;20399;-73
2021/10/31 16:22:58;;;;;;;1.90;1.80;;;16.70;98.00;;;;;;6214148;23;20403;-73
2021/10/31 16:25:27;;;;;;;1.50;1.20;;;16.50;98.00;;;;;;6214441;23;20866;-73
2021/10/31 16:27:54;;;;;;;1.87;1.40;;;16.50;98.00;;;;;;6214467;23;20469;-73
2021/10/31 16:30:23;;;;;;;1.67;1.63;;;16.40;98.00;;;;;;6214658;23;20403;-72
2021/10/31 16:32:51;;;;;;;1.57;1.57;;;16.20;98.00;;;;;;6214525;23;20726;-73
2021/10/31 16:35:22;;;;;;;1.70;1.40;;;16.10;98.00;;;;;;6186197;23;20431;-74
2021/10/31 16:37:49;;;;;;;2.50;1.30;;;16.00;98.00;;;;;;6213720;23;20760;-75
2021/10/31 16:40:17;;;;;;;1.40;1.30;;;15.90;98.00;;;;;;6212840;23;20465;-73
2021/10/31 16:42:46;;;;;;;1.40;1.30;;;15.70;98.00;;;;;;6187112;23;20409;-73
2021/10/31 16:45:15;;;;;;;1.40;1.30;;;15.50;98.00;;;;;;6215152;23;20394;-73
2021/10/31 16:47:43;;;;;;;1.40;1.20;;;15.40;98.00;;;;;;6214829;23;20434;-73
2021/10/31 16:50:11;;;;;;;1.87;1.60;;;15.20;98.00;;;;;;6214434;23;20409;-74
2021/10/31 16:52:42;;;;;;;1.80;1.40;;;15.20;98.00;;;;;;6214959;23;20786;-74
2021/10/31 16:55:10;;;;;;;4.30;1.90;;;15.00;98.00;;;;;;6187800;23;20445;-72
2021/10/31 16:57:51;;;;;;;2.90;1.80;;;15.00;98.00;;;;;;6214827;23;20455;-72
2021/10/31 17:00:19;;;;;;;2.90;1.50;;;14.90;98.00;;;;;;6214550;23;20887;-72
2021/10/31 17:02:49;;;;;;;1.57;1.30;;;14.90;98.00;;;;;;6214669;23;21173;-72
2021/10/31 17:05:17;;;;;;;2.23;1.60;;;14.80;98.00;;;;;;6214819;23;20398;-72
2021/10/31 17:07:55;;;;;;;1.30;1.10;;;14.80;98.00;;;;;;6214293;23;20406;-70
2021/10/31 17:10:33;;;;;;;1.60;1.50;;;14.80;98.00;;;;;;6187898;23;20925;-69
2021/10/31 17:13:01;;;;;;;2.43;1.63;;;14.70;98.00;;;;;;6213562;23;20512;-70
2021/10/31 17:15:32;;;;;;;2.80;1.60;;;14.60;98.00;;;;;;6215863;23;20910;-70
2021/10/31 17:17:59;;;;;;;2.70;1.93;;;14.40;98.00;;;;;;6215529;23;20401;-70
2021/10/31 17:20:26;;;;;;;1.50;1.30;;;14.40;98.00;;;;;;6216171;23;20458;-70
2021/10/31 17:22:55;;;;;;;2.33;1.53;;;14.30;98.00;;;;;;6215470;23;20416;-70
2021/10/31 17:25:28;;;;;;;1.83;1.53;;;14.30;98.00;;;;;;6164767;23;20715;-70
2021/10/31 17:27:55;;;;;;;1.50;1.17;;;14.20;98.00;;;;;;6215546;23;20396;-70
2021/10/31 17:30:23;;;;;;;3.50;2.07;;;14.10;98.00;;;;;;6216013;23;20451;-70
2021/10/31 17:32:50;;;;;;;1.77;1.70;;;14.00;98.00;;;;;;6215370;23;20854;-70
2021/10/31 17:35:17;;;;;;;4.30;2.67;;;14.00;98.00;;;;;;6215981;23;20670;-69
2021/10/31 17:37:45;;;;;;;9.40;4.43;;;13.90;98.00;;;;;;6215896;23;20400;-70
2021/10/31 17:40:14;;;;;;;6.20;2.73;;;13.80;98.00;;;;;;6216121;23;20782;-69
2021/10/31 17:42:41;;;;;;;2.67;1.97;;;13.90;98.00;;;;;;6215586;23;20411;-70
2021/10/31 17:45:09;;;;;;;3.10;2.30;;;13.90;98.00;;;;;;6216209;23;20401;-71
2021/10/31 17:47:37;;;;;;;3.33;2.20;;;13.90;98.00;;;;;;6215583;23;20451;-70
2021/10/31 17:50:19;;;;;;;2.50;1.70;;;13.80;98.00;;;;;;6216148;23;20467;-70
2021/10/31 17:52:47;;;;;;;6.50;1.73;;;13.80;98.00;;;;;;6215376;23;20889;-70
2021/10/31 17:55:17;;;;;;;2.63;1.87;;;13.60;98.00;;;;;;6214743;23;20539;-70
2021/10/31 17:57:45;;;;;;;3.53;2.40;;;13.50;98.00;;;;;;6215365;23;20400;-70
2021/10/31 18:00:16;;;;;;;2.17;1.90;;;13.50;98.00;;;;;;6214699;23;20436;-69
2021/10/31 18:02:43;;;;;;;1.90;1.77;;;13.40;98.00;;;;;;6215418;23;20404;-70
2021/10/31 18:05:11;;;;;;;1.70;1.70;;;13.30;98.00;;;;;;6215670;23;20449;-69
2021/10/31 18:07:39;;;;;;;1.67;1.57;;;13.30;98.00;;;;;;6163931;23;20430;-70
2021/10/31 18:10:10;;;;;;;1.50;1.30;;;13.20;98.00;;;;;;6215453;23;20770;-70
2021/10/31 18:12:42;;;;;;;3.40;1.90;;;13.10;98.00;;;;;;6189657;23;20457;-70
2021/10/31 18:15:12;;;;;;;3.07;2.03;;;13.00;98.00;;;;;;6188508;23;20488;-70
2021/10/31 18:17:40;;;;;;;1.30;1.20;;;13.00;98.00;;;;;;6215536;23;20394;-69
2021/10/31 18:20:09;;;;;;;1.60;1.37;;;12.90;98.00;;;;;;6215421;23;20415;-70
2021/10/31 18:22:36;;;;;;;3.20;1.70;;;12.80;98.00;;;;;;6214936;23;20931;-69
2021/10/31 18:25:04;;;;;;;1.50;1.30;;;12.80;98.00;;;;;;6215011;23;20398;-70
2021/10/31 18:27:31;;;;;;;3.63;1.23;;;12.80;98.00;;;;;;6215383;23;20460;-70
2021/10/31 18:30:00;;;;;;;2.33;1.80;;;12.80;98.00;;;;;;6214876;23;20397;-70
2021/10/31 18:32:27;;;;;;;1.40;1.20;;;12.80;98.00;;;;;;6214921;23;20867;-70
2021/10/31 18:34:54;;;;;;;1.40;1.10;;;12.80;98.00;;;;;;6215289;23;20427;-70
2021/10/31 18:37:34;;;;;;;2.77;1.77;;;12.80;98.00;;;;;;6188946;23;20607;-69
2021/10/31 18:40:13;;;;;;;1.60;1.40;;;12.80;98.00;;;;;;6225321;23;20465;-69
2021/10/31 18:42:42;;;;;;;1.50;1.20;;;12.70;98.00;;;;;;6215261;23;20400;-70
2021/10/31 18:45:12;;;;;;;4.77;2.13;;;12.70;98.00;;;;;;6215077;23;20402;-68
2021/10/31 18:47:43;;;;;;;1.40;1.30;;;12.60;98.00;;;;;;6214750;23;20551;-68
2021/10/31 18:50:12;;;;;;;1.90;1.47;;;12.60;98.00;;;;;;6215349;23;20424;-68
2021/10/31 18:52:39;;;;;;;1.20;1.00;;;12.70;98.00;;;;;;6215123;23;20791;-67
2021/10/31 18:55:07;;;;;;;1.30;1.30;;;12.60;98.00;;;;;;6215101;23;20434;-68
2021/10/31 18:57:35;;;;;;;1.70;1.40;;;12.50;98.00;;;;;;6189078;23;20399;-68
2021/10/31 19:00:04;;;;;;;1.60;1.30;;;12.40;98.00;;;;;;6215086;23;20402;-68
2021/10/31 19:02:32;;;;;;;2.53;1.80;;;12.40;98.00;;;;;;6215010;23;20488;-68
2021/10/31 19:05:00;;;;;;;3.67;2.30;;;12.50;98.00;;;;;;6214953;23;20849;-68
2021/10/31 19:07:27;;;;;;;2.03;1.43;;;12.50;98.00;;;;;;6215014;23;20464;-68
2021/10/31 19:09:54;;;;;;;1.57;1.33;;;12.50;98.00;;;;;;6189099;23;20468;-68
2021/10/31 19:12:22;;;;;;;3.40;1.97;;;12.50;98.00;;;;;;6215148;23;20446;-68
2021/10/31 19:14:49;;;;;;;1.20;1.10;;;12.50;98.00;;;;;;6214620;23;20513;-68
2021/10/31 19:17:18;;;;;;;3.67;1.63;;;12.60;98.00;;;;;;6214570;23;20479;-67
2021/10/31 19:19:46;;;;;;;1.40;1.30;;;12.60;98.00;;;;;;6214455;23;20871;-68
2021/10/31 19:22:13;;;;;;;1.63;1.50;;;12.60;98.00;;;;;;6214324;23;20421;-68
2021/10/31 19:24:40;;;;;;;1.20;1.10;;;12.70;98.00;;;;;;6214708;23;20446;-68
2021/10/31 19:27:08;;;;;;;1.40;1.40;;;12.70;98.00;;;;;;6214845;23;20402;-67
2021/10/31 19:29:35;;;;;;;2.27;1.43;;;12.70;98.00;;;;;;6214140;23;20413;-68
2021/10/31 19:32:04;;;;;;;1.83;1.60;;;12.60;98.00;;;;;;6214934;23;20458;-68
2021/10/31 19:34:31;;;;;;;2.77;1.73;;;12.60;98.00;;;;;;6214454;23;20807;-68
2021/10/31 19:37:00;;;;;;;1.60;1.30;;;12.50;98.00;;;;;;6214388;23;20412;-70
2021/10/31 19:39:28;;;;;;;1.30;1.30;;;12.30;98.00;;;;;;6214521;23;20406;-69
2021/10/31 19:41:57;;;;;;;2.23;1.47;;;12.40;98.00;;;;;;6214736;23;20499;-70
2021/10/31 19:44:25;;;;;;;1.40;1.27;;;12.30;98.00;;;;;;6187510;23;20503;-70
2021/10/31 19:46:54;;;;;;;1.60;1.60;;;12.30;98.00;;;;;;6214241;23;20908;-67
2021/10/31 19:49:21;;;;;;;2.47;1.63;;;12.20;98.00;;;;;;6187732;23;20513;-68
2021/10/31 19:51:50;;;;;;;3.80;2.20;;;12.20;98.00;;;;;;6214296;23;20416;-67
2021/10/31 19:54:20;;;;;;;1.30;1.20;;;12.00;98.00;;;;;;6214246;23;20458;-68
2021/10/31 19:56:47;;;;;;;1.47;1.20;;;11.90;98.00;;;;;;6214684;23;20468;-67
2021/10/31 19:59:16;;;;;;;1.50;1.20;;;11.80;98.00;;;;;;6214364;23;20398;-68
2021/10/31 20:01:46;;;;;;;2.17;1.33;;;11.70;98.00;;;;;;6214647;23;20407;-67
2021/10/31 20:04:14;;;;;;;1.73;1.30;;;11.70;98.00;;;;;;6214420;23;20467;-67
2021/10/31 20:06:41;;;;;;;1.20;1.20;;;11.60;98.00;;;;;;6188086;23;20406;-67
2021/10/31 20:09:09;;;;;;;3.10;1.80;;;11.50;98.00;;;;;;6214175;23;20929;-67
2021/10/31 20:11:42;;;;;;;5.70;2.17;;;11.50;98.00;;;;;;6188430;23;20785;-67
2021/10/31 20:14:14;;;;;;;1.30;1.13;;;11.50;98.00;;;;;;6214650;23;20485;-67
2021/10/31 20:16:42;;;;;;;1.70;1.47;;;11.70;98.00;;;;;;6214641;23;20504;-67
2021/10/31 20:19:12;;;;;;;1.23;1.20;;;11.50;98.00;;;;;;6214754;23;20556;-67
2021/10/31 20:21:40;;;;;;;1.40;1.30;;;11.40;98.00;;;;;;6214381;23;20455;-67
2021/10/31 20:24:07;;;;;;;1.70;1.43;;;11.30;98.00;;;;;;6214521;23;20453;-67
2021/10/31 20:26:34;;;;;;;2.27;1.40;;;11.20;98.00;;;;;;6214479;23;20430;-67
2021/10/31 20:29:03;;;;;;;1.30;1.10;;;11.20;98.00;;;;;;6213858;23;20949;-67
2021/10/31 20:31:30;;;;;;;1.40;1.40;;;11.10;98.00;;;;;;6214378;23;20409;-67
2021/10/31 20:33:57;;;;;;;1.57;1.27;;;11.10;98.00;;;;;;6187757;23;20740;-67
2021/10/31 20:36:26;;;;;;;1.63;1.30;;;11.10;98.00;;;;;;6214069;23;20439;-68
2021/10/31 20:38:53;;;;;;;1.60;1.60;;;11.10;98.00;;;;;;6188405;23;20430;-68
2021/10/31 20:41:24;;;;;;;2.20;1.40;;;11.10;98.00;;;;;;6214158;23;20443;-68
2021/10/31 20:43:51;;;;;;;1.30;1.03;;;11.20;98.00;;;;;;6214112;23;20408;-67
2021/10/31 20:46:20;;;;;;;1.60;1.60;;;11.10;98.00;;;;;;6213791;23;20434;-67
2021/10/31 20:48:48;;;;;;;1.73;1.37;;;11.10;98.00;;;;;;6213342;23;20925;-68
2021/10/31 20:51:17;;;;;;;2.10;1.40;;;11.10;98.00;;;;;;6214233;23;20467;-68
2021/10/31 20:53:44;;;;;;;1.40;1.10;;;11.10;98.00;;;;;;6213902;23;20452;-67
2021/10/31 20:56:18;;;;;;;2.43;1.80;;;11.00;98.00;;;;;;6187089;23;20499;-69
2021/10/31 20:58:53;;;;;;;1.83;1.20;;;10.90;98.00;;;;;;6189350;23;20407;-68
2021/10/31 21:01:22;;;;;;;1.60;1.20;;;11.00;98.00;;;;;;6213922;23;20475;-68
2021/10/31 21:03:50;;;;;;;3.50;1.50;;;11.00;98.00;;;;;;6213885;23;20467;-69
2021/10/31 21:06:18;;;;;;;2.13;1.47;;;11.00;98.00;;;;;;6213806;23;20964;-69
2021/10/31 21:08:46;;;;;;;1.67;1.27;;;11.00;98.00;;;;;;6213589;23;20468;-69
2021/10/31 21:11:18;;;;;;;1.77;1.13;;;11.00;98.00;;;;;;6213363;23;20418;-69
2021/10/31 21:13:45;;;;;;;1.77;1.70;;;10.90;98.00;;;;;;6214129;23;20453;-71
2021/10/31 21:16:13;;;;;;;1.23;1.10;;;11.00;98.00;;;;;;6223908;23;20443;-68
2021/10/31 21:18:42;;;;;;;1.63;1.40;;;11.00;98.00;;;;;;6214182;23;20778;-70
2021/10/31 21:21:10;;;;;;;1.60;1.27;;;10.90;98.00;;;;;;6213994;23;20397;-69
2021/10/31 21:23:42;;;;;;;1.50;1.40;;;10.90;98.00;;;;;;6188293;23;20400;-69
2021/10/31 21:26:09;;;;;;;1.50;1.40;;;10.90;98.00;;;;;;6224095;23;20413;-68
2021/10/31 21:28:36;;;;;;;1.40;1.30;;;11.00;98.00;;;;;;6214255;23;20417;-70
2021/10/31 21:31:04;;;;;;;3.63;1.60;;;10.90;98.00;;;;;;6216143;23;20415;-68
2021/10/31 21:33:31;;;;;;;1.20;1.17;;;10.80;98.00;;;;;;6215692;23;20429;-68
2021/10/31 21:36:01;;;;;;;3.17;1.80;;;10.70;98.00;;;;;;6189681;23;20750;-69
2021/10/31 21:38:28;;;;;;;1.30;1.20;;;10.70;98.00;;;;;;6216040;23;20399;-68
2021/10/31 21:41:09;;;;;;;1.20;1.00;;;10.80;98.00;;;;;;6215941;23;20397;-69
2021/10/31 21:43:52;;;;;;;1.40;1.30;;;10.70;98.00;;;;;;6215221;23;20420;-68
2021/10/31 21:46:20;;;;;;;2.70;1.33;;;10.70;98.00;;;;;;6215357;23;20430;-68
2021/10/31 21:48:47;;;;;;;1.20;1.00;;;10.60;98.00;;;;;;6215196;23;20422;-70
2021/10/31 21:51:16;;;;;;;2.30;1.70;;;10.50;98.00;;;;;;6215231;23;20422;-69